sensor_id;sensor_type;location;lat;lon;timestamp;P1;durP1;ratioP1;P2;durP2;ratioP2
78344;SDS011;67620;51.134;6.548;2023-04-09T00:00:43;40.42;;;23.80;;
78344;SDS011;67620;51.134;6.548;2023-04-09T00:03:08;37.03;;;22.70;;
78344;SDS011;67620;51.134;6.548;2023-04-09T00:05:37;38.42;;;24.25;;
78344;SDS011;67620;51.134;6.548;2023-04-09T00:08:04;41.00;;;23.73;;
78344;SDS011;67620;51.134;6.548;2023-04-09T00:10:30;35.33;;;21.63;;
78344;SDS011;67620;51.134;6.548;2023-04-09T00:12:55;38.25;;;22.48;;
78344;SDS011;67620;51.134;6.548;2023-04-09T00:15:21;38.92;;;24.05;;
78344;SDS011;67620;51.134;6.548;2023-04-09T00:17:46;39.85;;;23.85;;
78344;SDS011;67620;51.134;6.548;2023-04-09T00:20:12;39.80;;;23.08;;
78344;SDS011;67620;51.134;6.548;2023-04-09T00:22:37;37.38;;;23.02;;
78344;SDS011;67620;51.134;6.548;2023-04-09T00:25:03;36.65;;;22.25;;
78344;SDS011;67620;51.134;6.548;2023-04-09T00:27:29;38.85;;;23.95;;
78344;SDS011;67620;51.134;6.548;2023-04-09T00:29:54;39.33;;;24.00;;
78344;SDS011;67620;51.134;6.548;2023-04-09T00:32:20;44.47;;;24.73;;
78344;SDS011;67620;51.134;6.548;2023-04-09T00:34:45;33.92;;;20.88;;
78344;SDS011;67620;51.134;6.548;2023-04-09T00:37:11;35.35;;;21.92;;
78344;SDS011;67620;51.134;6.548;2023-04-09T00:39:36;35.33;;;21.98;;
78344;SDS011;67620;51.134;6.548;2023-04-09T00:42:02;38.40;;;22.75;;
78344;SDS011;67620;51.134;6.548;2023-04-09T00:44:27;35.60;;;22.27;;
78344;SDS011;67620;51.134;6.548;2023-04-09T00:46:53;33.90;;;21.30;;
78344;SDS011;67620;51.134;6.548;2023-04-09T00:49:19;36.72;;;22.45;;
78344;SDS011;67620;51.134;6.548;2023-04-09T00:51:45;40.75;;;23.75;;
78344;SDS011;67620;51.134;6.548;2023-04-09T00:56:37;36.75;;;20.95;;
78344;SDS011;67620;51.134;6.548;2023-04-09T00:59:04;41.70;;;24.67;;
78344;SDS011;67620;51.134;6.548;2023-04-09T01:01:30;38.38;;;22.60;;
78344;SDS011;67620;51.134;6.548;2023-04-09T01:03:55;35.42;;;21.73;;
78344;SDS011;67620;51.134;6.548;2023-04-09T01:06:26;37.85;;;22.65;;
78344;SDS011;67620;51.134;6.548;2023-04-09T01:14:39;33.38;;;20.02;;
78344;SDS011;67620;51.134;6.548;2023-04-09T01:17:17;37.88;;;22.02;;
78344;SDS011;67620;51.134;6.548;2023-04-09T01:19:57;38.90;;;22.17;;
78344;SDS011;67620;51.134;6.548;2023-04-09T01:25:28;38.38;;;21.77;;
78344;SDS011;67620;51.134;6.548;2023-04-09T01:28:22;36.88;;;21.80;;
78344;SDS011;67620;51.134;6.548;2023-04-09T01:30:52;35.40;;;20.80;;
78344;SDS011;67620;51.134;6.548;2023-04-09T01:33:23;36.38;;;21.88;;
78344;SDS011;67620;51.134;6.548;2023-04-09T01:35:50;36.17;;;21.83;;
78344;SDS011;67620;51.134;6.548;2023-04-09T01:38:17;37.70;;;21.02;;
78344;SDS011;67620;51.134;6.548;2023-04-09T01:40:44;33.97;;;21.83;;
78344;SDS011;67620;51.134;6.548;2023-04-09T01:43:10;36.13;;;22.25;;
78344;SDS011;67620;51.134;6.548;2023-04-09T01:45:38;35.47;;;20.35;;
78344;SDS011;67620;51.134;6.548;2023-04-09T01:48:04;33.63;;;20.92;;
78344;SDS011;67620;51.134;6.548;2023-04-09T01:50:31;33.35;;;20.42;;
78344;SDS011;67620;51.134;6.548;2023-04-09T01:55:23;36.42;;;20.25;;
78344;SDS011;67620;51.134;6.548;2023-04-09T01:57:48;33.35;;;19.95;;
78344;SDS011;67620;51.134;6.548;2023-04-09T02:00:14;36.83;;;20.00;;
78344;SDS011;67620;51.134;6.548;2023-04-09T02:05:26;32.67;;;19.88;;
78344;SDS011;67620;51.134;6.548;2023-04-09T02:07:55;37.70;;;21.63;;
78344;SDS011;67620;51.134;6.548;2023-04-09T02:10:25;33.65;;;19.77;;
78344;SDS011;67620;51.134;6.548;2023-04-09T02:12:54;37.38;;;21.45;;
78344;SDS011;67620;51.134;6.548;2023-04-09T02:15:22;37.22;;;21.98;;
78344;SDS011;67620;51.134;6.548;2023-04-09T02:17:48;30.08;;;19.35;;
78344;SDS011;67620;51.134;6.548;2023-04-09T02:20:17;33.35;;;19.98;;
78344;SDS011;67620;51.134;6.548;2023-04-09T02:22:43;38.35;;;22.77;;
78344;SDS011;67620;51.134;6.548;2023-04-09T02:25:10;36.05;;;21.33;;
78344;SDS011;67620;51.134;6.548;2023-04-09T02:27:35;35.42;;;20.95;;
78344;SDS011;67620;51.134;6.548;2023-04-09T02:30:01;37.58;;;21.52;;
78344;SDS011;67620;51.134;6.548;2023-04-09T02:32:26;40.45;;;24.45;;
78344;SDS011;67620;51.134;6.548;2023-04-09T02:34:52;39.65;;;23.00;;
78344;SDS011;67620;51.134;6.548;2023-04-09T02:37:17;40.47;;;22.90;;
78344;SDS011;67620;51.134;6.548;2023-04-09T02:39:43;37.95;;;23.02;;
78344;SDS011;67620;51.134;6.548;2023-04-09T02:42:08;36.70;;;22.48;;
78344;SDS011;67620;51.134;6.548;2023-04-09T02:44:34;35.47;;;21.60;;
78344;SDS011;67620;51.134;6.548;2023-04-09T02:47:00;36.08;;;20.40;;
78344;SDS011;67620;51.134;6.548;2023-04-09T02:49:25;36.50;;;23.83;;
78344;SDS011;67620;51.134;6.548;2023-04-09T02:51:51;40.80;;;24.17;;
78344;SDS011;67620;51.134;6.548;2023-04-09T02:54:16;45.88;;;25.15;;
78344;SDS011;67620;51.134;6.548;2023-04-09T02:56:42;40.00;;;23.45;;
78344;SDS011;67620;51.134;6.548;2023-04-09T02:59:07;42.38;;;24.63;;
78344;SDS011;67620;51.134;6.548;2023-04-09T03:01:33;41.10;;;23.08;;
78344;SDS011;67620;51.134;6.548;2023-04-09T03:03:59;33.85;;;20.15;;
78344;SDS011;67620;51.134;6.548;2023-04-09T03:06:25;38.58;;;22.33;;
78344;SDS011;67620;51.134;6.548;2023-04-09T03:08:50;38.15;;;21.98;;
78344;SDS011;67620;51.134;6.548;2023-04-09T03:11:16;40.47;;;23.17;;
78344;SDS011;67620;51.134;6.548;2023-04-09T03:13:42;39.67;;;23.70;;
78344;SDS011;67620;51.134;6.548;2023-04-09T03:16:07;40.47;;;23.02;;
78344;SDS011;67620;51.134;6.548;2023-04-09T03:18:34;44.05;;;23.95;;
78344;SDS011;67620;51.134;6.548;2023-04-09T03:21:03;43.00;;;24.83;;
78344;SDS011;67620;51.134;6.548;2023-04-09T03:23:30;41.25;;;23.77;;
78344;SDS011;67620;51.134;6.548;2023-04-09T03:26:01;42.30;;;24.63;;
78344;SDS011;67620;51.134;6.548;2023-04-09T03:28:27;45.40;;;23.45;;
78344;SDS011;67620;51.134;6.548;2023-04-09T03:30:53;42.38;;;24.20;;
78344;SDS011;67620;51.134;6.548;2023-04-09T03:33:18;42.30;;;23.75;;
78344;SDS011;67620;51.134;6.548;2023-04-09T03:35:44;38.85;;;23.55;;
78344;SDS011;67620;51.134;6.548;2023-04-09T03:38:09;41.00;;;24.08;;
78344;SDS011;67620;51.134;6.548;2023-04-09T03:40:35;40.88;;;24.52;;
78344;SDS011;67620;51.134;6.548;2023-04-09T03:43:00;37.80;;;23.15;;
78344;SDS011;67620;51.134;6.548;2023-04-09T03:45:28;40.50;;;23.33;;
78344;SDS011;67620;51.134;6.548;2023-04-09T03:47:54;37.50;;;22.75;;
78344;SDS011;67620;51.134;6.548;2023-04-09T03:50:19;39.97;;;23.10;;
78344;SDS011;67620;51.134;6.548;2023-04-09T03:52:45;39.13;;;22.83;;
78344;SDS011;67620;51.134;6.548;2023-04-09T03:55:11;36.80;;;21.45;;
78344;SDS011;67620;51.134;6.548;2023-04-09T03:57:37;37.97;;;24.17;;
78344;SDS011;67620;51.134;6.548;2023-04-09T04:00:02;39.88;;;23.20;;
78344;SDS011;67620;51.134;6.548;2023-04-09T04:02:28;39.45;;;23.38;;
78344;SDS011;67620;51.134;6.548;2023-04-09T04:04:57;36.05;;;21.75;;
78344;SDS011;67620;51.134;6.548;2023-04-09T04:07:23;37.90;;;23.63;;
78344;SDS011;67620;51.134;6.548;2023-04-09T04:09:48;35.67;;;22.23;;
78344;SDS011;67620;51.134;6.548;2023-04-09T04:12:14;34.05;;;21.20;;
78344;SDS011;67620;51.134;6.548;2023-04-09T04:14:40;35.08;;;21.17;;
78344;SDS011;67620;51.134;6.548;2023-04-09T04:17:05;33.10;;;20.17;;
78344;SDS011;67620;51.134;6.548;2023-04-09T04:19:31;34.78;;;21.77;;
78344;SDS011;67620;51.134;6.548;2023-04-09T04:21:56;36.72;;;23.48;;
78344;SDS011;67620;51.134;6.548;2023-04-09T04:24:22;34.00;;;22.73;;
78344;SDS011;67620;51.134;6.548;2023-04-09T04:26:47;41.97;;;24.80;;
78344;SDS011;67620;51.134;6.548;2023-04-09T04:29:13;39.67;;;23.35;;
78344;SDS011;67620;51.134;6.548;2023-04-09T04:31:38;28.98;;;17.90;;
78344;SDS011;67620;51.134;6.548;2023-04-09T04:34:04;31.55;;;19.70;;
78344;SDS011;67620;51.134;6.548;2023-04-09T04:36:29;36.00;;;20.70;;
78344;SDS011;67620;51.134;6.548;2023-04-09T04:38:55;35.65;;;21.75;;
78344;SDS011;67620;51.134;6.548;2023-04-09T04:41:20;34.92;;;20.90;;
78344;SDS011;67620;51.134;6.548;2023-04-09T04:43:46;37.03;;;22.25;;
78344;SDS011;67620;51.134;6.548;2023-04-09T04:46:12;36.22;;;20.98;;
78344;SDS011;67620;51.134;6.548;2023-04-09T04:48:37;33.47;;;20.13;;
78344;SDS011;67620;51.134;6.548;2023-04-09T04:51:03;32.53;;;19.48;;
78344;SDS011;67620;51.134;6.548;2023-04-09T04:53:28;37.40;;;21.23;;
78344;SDS011;67620;51.134;6.548;2023-04-09T04:55:54;35.13;;;21.30;;
78344;SDS011;67620;51.134;6.548;2023-04-09T04:58:20;35.25;;;22.50;;
78344;SDS011;67620;51.134;6.548;2023-04-09T05:00:45;32.80;;;21.45;;
78344;SDS011;67620;51.134;6.548;2023-04-09T05:03:11;36.10;;;22.15;;
78344;SDS011;67620;51.134;6.548;2023-04-09T05:05:36;31.60;;;20.15;;
78344;SDS011;67620;51.134;6.548;2023-04-09T05:08:02;36.60;;;22.00;;
78344;SDS011;67620;51.134;6.548;2023-04-09T05:10:28;35.67;;;22.13;;
78344;SDS011;67620;51.134;6.548;2023-04-09T05:12:53;36.53;;;21.85;;
78344;SDS011;67620;51.134;6.548;2023-04-09T05:15:19;32.35;;;19.92;;
78344;SDS011;67620;51.134;6.548;2023-04-09T05:17:44;32.78;;;20.65;;
78344;SDS011;67620;51.134;6.548;2023-04-09T05:20:10;33.72;;;20.88;;
78344;SDS011;67620;51.134;6.548;2023-04-09T05:22:36;29.40;;;19.10;;
78344;SDS011;67620;51.134;6.548;2023-04-09T05:25:01;30.30;;;19.25;;
78344;SDS011;67620;51.134;6.548;2023-04-09T05:27:27;31.70;;;19.35;;
78344;SDS011;67620;51.134;6.548;2023-04-09T05:29:53;37.30;;;23.20;;
78344;SDS011;67620;51.134;6.548;2023-04-09T05:32:19;36.72;;;22.33;;
78344;SDS011;67620;51.134;6.548;2023-04-09T05:34:45;37.05;;;22.25;;
78344;SDS011;67620;51.134;6.548;2023-04-09T05:37:11;37.78;;;23.23;;
78344;SDS011;67620;51.134;6.548;2023-04-09T05:39:36;37.88;;;23.48;;
78344;SDS011;67620;51.134;6.548;2023-04-09T05:42:02;37.10;;;23.20;;
78344;SDS011;67620;51.134;6.548;2023-04-09T05:44:28;40.95;;;23.13;;
78344;SDS011;67620;51.134;6.548;2023-04-09T05:46:53;38.90;;;23.58;;
78344;SDS011;67620;51.134;6.548;2023-04-09T05:49:19;39.53;;;24.92;;
78344;SDS011;67620;51.134;6.548;2023-04-09T05:51:44;40.92;;;24.38;;
78344;SDS011;67620;51.134;6.548;2023-04-09T05:54:10;40.00;;;25.25;;
78344;SDS011;67620;51.134;6.548;2023-04-09T05:56:36;51.45;;;30.73;;
78344;SDS011;67620;51.134;6.548;2023-04-09T05:59:01;48.67;;;29.15;;
78344;SDS011;67620;51.134;6.548;2023-04-09T06:01:27;60.63;;;33.10;;
78344;SDS011;67620;51.134;6.548;2023-04-09T06:06:19;43.45;;;26.85;;
78344;SDS011;67620;51.134;6.548;2023-04-09T06:08:44;43.53;;;26.48;;
78344;SDS011;67620;51.134;6.548;2023-04-09T06:11:10;42.28;;;26.40;;
78344;SDS011;67620;51.134;6.548;2023-04-09T06:13:36;43.60;;;24.83;;
78344;SDS011;67620;51.134;6.548;2023-04-09T06:16:05;43.05;;;24.60;;
78344;SDS011;67620;51.134;6.548;2023-04-09T06:18:32;36.92;;;22.83;;
78344;SDS011;67620;51.134;6.548;2023-04-09T06:21:04;42.25;;;23.95;;
78344;SDS011;67620;51.134;6.548;2023-04-09T06:23:32;46.38;;;27.65;;
78344;SDS011;67620;51.134;6.548;2023-04-09T06:25:58;42.20;;;24.60;;
78344;SDS011;67620;51.134;6.548;2023-04-09T06:28:24;41.58;;;26.70;;
78344;SDS011;67620;51.134;6.548;2023-04-09T06:30:50;44.53;;;25.85;;
78344;SDS011;67620;51.134;6.548;2023-04-09T06:33:17;43.88;;;26.92;;
78344;SDS011;67620;51.134;6.548;2023-04-09T06:35:43;44.85;;;26.30;;
78344;SDS011;67620;51.134;6.548;2023-04-09T06:38:08;39.90;;;24.33;;
78344;SDS011;67620;51.134;6.548;2023-04-09T06:40:36;39.63;;;23.15;;
78344;SDS011;67620;51.134;6.548;2023-04-09T06:43:02;43.22;;;24.17;;
78344;SDS011;67620;51.134;6.548;2023-04-09T06:45:28;40.58;;;24.02;;
78344;SDS011;67620;51.134;6.548;2023-04-09T06:47:55;38.38;;;22.50;;
78344;SDS011;67620;51.134;6.548;2023-04-09T06:50:20;36.17;;;22.80;;
78344;SDS011;67620;51.134;6.548;2023-04-09T06:52:46;39.70;;;23.15;;
78344;SDS011;67620;51.134;6.548;2023-04-09T06:55:12;33.90;;;21.30;;
78344;SDS011;67620;51.134;6.548;2023-04-09T06:57:37;36.40;;;21.20;;
78344;SDS011;67620;51.134;6.548;2023-04-09T07:00:03;31.63;;;19.60;;
78344;SDS011;67620;51.134;6.548;2023-04-09T07:02:29;33.42;;;21.10;;
78344;SDS011;67620;51.134;6.548;2023-04-09T07:04:55;38.22;;;20.77;;
78344;SDS011;67620;51.134;6.548;2023-04-09T07:07:20;30.50;;;18.73;;
78344;SDS011;67620;51.134;6.548;2023-04-09T07:09:46;27.00;;;17.20;;
78344;SDS011;67620;51.134;6.548;2023-04-09T07:12:12;29.65;;;17.75;;
78344;SDS011;67620;51.134;6.548;2023-04-09T07:14:38;27.58;;;16.85;;
78344;SDS011;67620;51.134;6.548;2023-04-09T07:17:03;31.90;;;16.90;;
78344;SDS011;67620;51.134;6.548;2023-04-09T07:19:29;23.65;;;14.98;;
78344;SDS011;67620;51.134;6.548;2023-04-09T07:21:55;32.22;;;17.40;;
78344;SDS011;67620;51.134;6.548;2023-04-09T07:24:20;26.80;;;15.27;;
78344;SDS011;67620;51.134;6.548;2023-04-09T07:26:46;25.52;;;15.93;;
78344;SDS011;67620;51.134;6.548;2023-04-09T07:29:11;28.52;;;16.52;;
78344;SDS011;67620;51.134;6.548;2023-04-09T07:31:38;24.75;;;15.02;;
78344;SDS011;67620;51.134;6.548;2023-04-09T07:34:04;27.85;;;15.45;;
78344;SDS011;67620;51.134;6.548;2023-04-09T07:36:29;28.25;;;16.00;;
78344;SDS011;67620;51.134;6.548;2023-04-09T07:38:55;23.83;;;14.15;;
78344;SDS011;67620;51.134;6.548;2023-04-09T07:41:21;26.90;;;15.50;;
78344;SDS011;67620;51.134;6.548;2023-04-09T07:43:46;25.35;;;14.75;;
78344;SDS011;67620;51.134;6.548;2023-04-09T07:46:17;23.90;;;14.82;;
78344;SDS011;67620;51.134;6.548;2023-04-09T07:48:45;22.40;;;13.57;;
78344;SDS011;67620;51.134;6.548;2023-04-09T07:51:11;22.17;;;13.60;;
78344;SDS011;67620;51.134;6.548;2023-04-09T07:53:36;25.67;;;14.65;;
78344;SDS011;67620;51.134;6.548;2023-04-09T07:56:02;25.10;;;14.45;;
78344;SDS011;67620;51.134;6.548;2023-04-09T07:58:28;26.10;;;15.13;;
78344;SDS011;67620;51.134;6.548;2023-04-09T08:00:53;21.13;;;13.50;;
78344;SDS011;67620;51.134;6.548;2023-04-09T08:03:19;21.33;;;12.73;;
78344;SDS011;67620;51.134;6.548;2023-04-09T08:05:46;24.08;;;13.05;;
78344;SDS011;67620;51.134;6.548;2023-04-09T08:08:12;22.15;;;12.82;;
78344;SDS011;67620;51.134;6.548;2023-04-09T08:10:37;19.45;;;11.80;;
78344;SDS011;67620;51.134;6.548;2023-04-09T08:13:03;21.02;;;12.40;;
78344;SDS011;67620;51.134;6.548;2023-04-09T08:15:28;21.30;;;12.35;;
78344;SDS011;67620;51.134;6.548;2023-04-09T08:17:54;21.27;;;13.20;;
78344;SDS011;67620;51.134;6.548;2023-04-09T08:22:46;22.67;;;12.43;;
78344;SDS011;67620;51.134;6.548;2023-04-09T08:25:11;21.67;;;12.25;;
78344;SDS011;67620;51.134;6.548;2023-04-09T08:27:37;18.63;;;12.40;;
78344;SDS011;67620;51.134;6.548;2023-04-09T08:30:03;21.27;;;11.82;;
78344;SDS011;67620;51.134;6.548;2023-04-09T08:32:29;20.27;;;12.80;;
78344;SDS011;67620;51.134;6.548;2023-04-09T08:34:55;19.77;;;12.15;;
78344;SDS011;67620;51.134;6.548;2023-04-09T08:37:20;20.20;;;12.45;;
78344;SDS011;67620;51.134;6.548;2023-04-09T08:39:46;20.58;;;11.95;;
78344;SDS011;67620;51.134;6.548;2023-04-09T08:42:12;24.40;;;12.40;;
78344;SDS011;67620;51.134;6.548;2023-04-09T08:44:38;21.17;;;13.30;;
78344;SDS011;67620;51.134;6.548;2023-04-09T08:47:07;19.23;;;12.40;;
78344;SDS011;67620;51.134;6.548;2023-04-09T08:49:35;17.17;;;11.52;;
78344;SDS011;67620;51.134;6.548;2023-04-09T08:52:02;20.45;;;12.80;;
78344;SDS011;67620;51.134;6.548;2023-04-09T08:54:28;17.88;;;10.40;;
78344;SDS011;67620;51.134;6.548;2023-04-09T08:56:54;20.35;;;11.55;;
78344;SDS011;67620;51.134;6.548;2023-04-09T08:59:21;17.63;;;11.50;;
78344;SDS011;67620;51.134;6.548;2023-04-09T09:01:47;18.90;;;11.07;;
78344;SDS011;67620;51.134;6.548;2023-04-09T09:04:17;16.92;;;11.00;;
78344;SDS011;67620;51.134;6.548;2023-04-09T09:06:44;16.98;;;9.90;;
78344;SDS011;67620;51.134;6.548;2023-04-09T09:09:10;17.90;;;11.13;;
78344;SDS011;67620;51.134;6.548;2023-04-09T09:11:38;14.88;;;10.00;;
78344;SDS011;67620;51.134;6.548;2023-04-09T09:14:06;16.95;;;10.82;;
78344;SDS011;67620;51.134;6.548;2023-04-09T09:16:34;17.98;;;10.60;;
78344;SDS011;67620;51.134;6.548;2023-04-09T09:19:03;19.00;;;10.43;;
78344;SDS011;67620;51.134;6.548;2023-04-09T09:21:30;16.17;;;10.20;;
78344;SDS011;67620;51.134;6.548;2023-04-09T09:23:56;16.23;;;9.50;;
78344;SDS011;67620;51.134;6.548;2023-04-09T09:26:23;16.02;;;9.23;;
78344;SDS011;67620;51.134;6.548;2023-04-09T09:28:51;15.60;;;9.50;;
78344;SDS011;67620;51.134;6.548;2023-04-09T09:31:18;13.23;;;8.70;;
78344;SDS011;67620;51.134;6.548;2023-04-09T09:33:45;16.30;;;9.57;;
78344;SDS011;67620;51.134;6.548;2023-04-09T09:36:12;13.70;;;8.48;;
78344;SDS011;67620;51.134;6.548;2023-04-09T09:38:52;14.50;;;9.15;;
78344;SDS011;67620;51.134;6.548;2023-04-09T09:41:18;14.63;;;9.25;;
78344;SDS011;67620;51.134;6.548;2023-04-09T09:43:44;13.68;;;8.35;;
78344;SDS011;67620;51.134;6.548;2023-04-09T09:46:10;13.00;;;8.18;;
78344;SDS011;67620;51.134;6.548;2023-04-09T09:48:36;12.30;;;7.50;;
78344;SDS011;67620;51.134;6.548;2023-04-09T09:51:05;12.27;;;8.23;;
78344;SDS011;67620;51.134;6.548;2023-04-09T09:53:35;11.00;;;7.68;;
78344;SDS011;67620;51.134;6.548;2023-04-09T09:56:01;14.55;;;8.00;;
78344;SDS011;67620;51.134;6.548;2023-04-09T09:58:40;11.32;;;6.53;;
78344;SDS011;67620;51.134;6.548;2023-04-09T10:01:11;12.20;;;7.15;;
78344;SDS011;67620;51.134;6.548;2023-04-09T10:03:38;10.18;;;6.38;;
78344;SDS011;67620;51.134;6.548;2023-04-09T10:06:06;10.90;;;6.78;;
78344;SDS011;67620;51.134;6.548;2023-04-09T10:08:32;11.88;;;7.45;;
78344;SDS011;67620;51.134;6.548;2023-04-09T10:11:00;10.30;;;6.57;;
78344;SDS011;67620;51.134;6.548;2023-04-09T10:15:58;12.15;;;7.07;;
78344;SDS011;67620;51.134;6.548;2023-04-09T10:18:24;11.30;;;5.80;;
78344;SDS011;67620;51.134;6.548;2023-04-09T10:21:13;11.35;;;7.20;;
78344;SDS011;67620;51.134;6.548;2023-04-09T10:23:47;10.30;;;6.60;;
78344;SDS011;67620;51.134;6.548;2023-04-09T10:26:14;10.65;;;6.88;;
78344;SDS011;67620;51.134;6.548;2023-04-09T10:28:42;8.38;;;5.28;;
78344;SDS011;67620;51.134;6.548;2023-04-09T10:31:08;8.18;;;5.10;;
78344;SDS011;67620;51.134;6.548;2023-04-09T10:33:34;9.75;;;6.13;;
78344;SDS011;67620;51.134;6.548;2023-04-09T10:36:09;7.80;;;5.47;;
78344;SDS011;67620;51.134;6.548;2023-04-09T10:38:36;7.50;;;4.57;;
78344;SDS011;67620;51.134;6.548;2023-04-09T10:41:14;8.90;;;5.07;;
78344;SDS011;67620;51.134;6.548;2023-04-09T10:43:46;8.75;;;5.68;;
78344;SDS011;67620;51.134;6.548;2023-04-09T10:46:25;8.57;;;6.40;;
78344;SDS011;67620;51.134;6.548;2023-04-09T10:51:46;8.23;;;5.55;;
78344;SDS011;67620;51.134;6.548;2023-04-09T10:54:36;9.80;;;6.22;;
78344;SDS011;67620;51.134;6.548;2023-04-09T10:59:40;9.15;;;5.68;;
78344;SDS011;67620;51.134;6.548;2023-04-09T11:07:46;10.05;;;6.63;;
78344;SDS011;67620;51.134;6.548;2023-04-09T11:10:18;9.85;;;6.60;;
78344;SDS011;67620;51.134;6.548;2023-04-09T11:12:45;8.88;;;6.03;;
78344;SDS011;67620;51.134;6.548;2023-04-09T11:15:14;9.75;;;5.60;;
78344;SDS011;67620;51.134;6.548;2023-04-09T11:17:41;10.32;;;6.88;;
78344;SDS011;67620;51.134;6.548;2023-04-09T11:20:07;9.75;;;6.45;;
78344;SDS011;67620;51.134;6.548;2023-04-09T11:22:34;9.60;;;6.20;;
78344;SDS011;67620;51.134;6.548;2023-04-09T11:25:00;9.27;;;6.47;;
78344;SDS011;67620;51.134;6.548;2023-04-09T11:27:26;10.82;;;6.57;;
78344;SDS011;67620;51.134;6.548;2023-04-09T11:29:55;8.57;;;5.68;;
78344;SDS011;67620;51.134;6.548;2023-04-09T11:32:20;9.70;;;6.13;;
78344;SDS011;67620;51.134;6.548;2023-04-09T11:34:46;9.30;;;6.15;;
78344;SDS011;67620;51.134;6.548;2023-04-09T11:37:15;10.15;;;6.47;;
78344;SDS011;67620;51.134;6.548;2023-04-09T11:39:43;8.95;;;6.47;;
78344;SDS011;67620;51.134;6.548;2023-04-09T11:42:13;9.75;;;6.50;;
78344;SDS011;67620;51.134;6.548;2023-04-09T11:44:39;9.25;;;6.22;;
78344;SDS011;67620;51.134;6.548;2023-04-09T11:47:05;8.90;;;6.10;;
78344;SDS011;67620;51.134;6.548;2023-04-09T11:49:31;10.73;;;7.03;;
78344;SDS011;67620;51.134;6.548;2023-04-09T11:51:57;8.38;;;5.75;;
78344;SDS011;67620;51.134;6.548;2023-04-09T11:54:26;9.20;;;6.22;;
78344;SDS011;67620;51.134;6.548;2023-04-09T11:56:57;8.85;;;5.68;;
78344;SDS011;67620;51.134;6.548;2023-04-09T11:59:23;8.32;;;5.72;;
78344;SDS011;67620;51.134;6.548;2023-04-09T12:04:21;8.90;;;5.18;;
78344;SDS011;67620;51.134;6.548;2023-04-09T12:06:47;9.23;;;5.68;;
78344;SDS011;67620;51.134;6.548;2023-04-09T12:09:13;9.13;;;6.03;;
78344;SDS011;67620;51.134;6.548;2023-04-09T12:11:41;8.38;;;6.00;;
78344;SDS011;67620;51.134;6.548;2023-04-09T12:14:14;9.80;;;7.03;;
78344;SDS011;67620;51.134;6.548;2023-04-09T12:16:41;11.07;;;6.38;;
78344;SDS011;67620;51.134;6.548;2023-04-09T12:19:11;8.85;;;5.90;;
78344;SDS011;67620;51.134;6.548;2023-04-09T12:21:47;8.85;;;5.68;;
78344;SDS011;67620;51.134;6.548;2023-04-09T12:24:14;9.43;;;5.63;;
78344;SDS011;67620;51.134;6.548;2023-04-09T12:26:44;8.43;;;5.65;;
78344;SDS011;67620;51.134;6.548;2023-04-09T12:29:10;9.13;;;6.18;;
78344;SDS011;67620;51.134;6.548;2023-04-09T12:31:36;8.68;;;5.80;;
78344;SDS011;67620;51.134;6.548;2023-04-09T12:34:02;8.85;;;6.03;;
78344;SDS011;67620;51.134;6.548;2023-04-09T12:36:27;9.82;;;6.15;;
78344;SDS011;67620;51.134;6.548;2023-04-09T12:38:53;7.68;;;5.28;;
78344;SDS011;67620;51.134;6.548;2023-04-09T12:41:19;9.38;;;6.13;;
78344;SDS011;67620;51.134;6.548;2023-04-09T12:43:45;9.50;;;5.70;;
78344;SDS011;67620;51.134;6.548;2023-04-09T12:46:11;9.30;;;6.22;;
78344;SDS011;67620;51.134;6.548;2023-04-09T12:48:37;9.00;;;5.93;;
78344;SDS011;67620;51.134;6.548;2023-04-09T12:51:03;9.80;;;6.90;;
78344;SDS011;67620;51.134;6.548;2023-04-09T12:53:29;9.43;;;6.57;;
78344;SDS011;67620;51.134;6.548;2023-04-09T12:55:55;9.45;;;5.90;;
78344;SDS011;67620;51.134;6.548;2023-04-09T12:58:21;9.63;;;6.40;;
78344;SDS011;67620;51.134;6.548;2023-04-09T13:00:46;10.45;;;6.13;;
78344;SDS011;67620;51.134;6.548;2023-04-09T13:03:12;8.40;;;5.75;;
78344;SDS011;67620;51.134;6.548;2023-04-09T13:05:40;8.95;;;5.68;;
78344;SDS011;67620;51.134;6.548;2023-04-09T13:08:06;10.13;;;6.63;;
78344;SDS011;67620;51.134;6.548;2023-04-09T13:10:32;9.38;;;6.38;;
78344;SDS011;67620;51.134;6.548;2023-04-09T13:12:57;11.82;;;7.03;;
78344;SDS011;67620;51.134;6.548;2023-04-09T13:15:23;11.15;;;6.40;;
78344;SDS011;67620;51.134;6.548;2023-04-09T13:17:48;9.52;;;6.43;;
78344;SDS011;67620;51.134;6.548;2023-04-09T13:20:14;8.07;;;5.47;;
78344;SDS011;67620;51.134;6.548;2023-04-09T13:22:40;9.38;;;6.22;;
78344;SDS011;67620;51.134;6.548;2023-04-09T13:25:05;6.97;;;5.47;;
78344;SDS011;67620;51.134;6.548;2023-04-09T13:27:31;9.68;;;6.03;;
78344;SDS011;67620;51.134;6.548;2023-04-09T13:29:57;8.88;;;5.88;;
78344;SDS011;67620;51.134;6.548;2023-04-09T13:32:22;9.52;;;6.50;;
78344;SDS011;67620;51.134;6.548;2023-04-09T13:34:48;8.88;;;5.85;;
78344;SDS011;67620;51.134;6.548;2023-04-09T13:37:14;8.00;;;5.40;;
78344;SDS011;67620;51.134;6.548;2023-04-09T13:39:40;11.02;;;6.38;;
78344;SDS011;67620;51.134;6.548;2023-04-09T13:42:06;9.95;;;6.03;;
78344;SDS011;67620;51.134;6.548;2023-04-09T13:44:31;8.27;;;5.38;;
78344;SDS011;67620;51.134;6.548;2023-04-09T13:46:57;8.80;;;6.07;;
78344;SDS011;67620;51.134;6.548;2023-04-09T13:49:22;7.68;;;5.45;;
78344;SDS011;67620;51.134;6.548;2023-04-09T13:51:49;8.65;;;5.35;;
78344;SDS011;67620;51.134;6.548;2023-04-09T13:54:15;8.32;;;5.70;;
78344;SDS011;67620;51.134;6.548;2023-04-09T13:56:41;8.27;;;5.97;;
78344;SDS011;67620;51.134;6.548;2023-04-09T13:59:06;7.82;;;5.53;;
78344;SDS011;67620;51.134;6.548;2023-04-09T14:01:32;8.15;;;5.40;;
78344;SDS011;67620;51.134;6.548;2023-04-09T14:03:58;8.57;;;6.05;;
78344;SDS011;67620;51.134;6.548;2023-04-09T14:06:23;7.13;;;4.97;;
78344;SDS011;67620;51.134;6.548;2023-04-09T14:08:49;9.68;;;6.18;;
78344;SDS011;67620;51.134;6.548;2023-04-09T14:11:15;9.50;;;6.15;;
78344;SDS011;67620;51.134;6.548;2023-04-09T14:13:40;9.00;;;5.57;;
78344;SDS011;67620;51.134;6.548;2023-04-09T14:16:06;10.00;;;6.80;;
78344;SDS011;67620;51.134;6.548;2023-04-09T14:18:33;8.25;;;6.10;;
78344;SDS011;67620;51.134;6.548;2023-04-09T14:20:58;8.40;;;5.70;;
78344;SDS011;67620;51.134;6.548;2023-04-09T14:23:24;8.13;;;5.47;;
78344;SDS011;67620;51.134;6.548;2023-04-09T14:25:50;8.07;;;5.65;;
78344;SDS011;67620;51.134;6.548;2023-04-09T14:28:17;7.97;;;5.28;;
78344;SDS011;67620;51.134;6.548;2023-04-09T14:30:42;9.32;;;6.05;;
78344;SDS011;67620;51.134;6.548;2023-04-09T14:33:08;9.43;;;5.88;;
78344;SDS011;67620;51.134;6.548;2023-04-09T14:35:34;8.38;;;5.70;;
78344;SDS011;67620;51.134;6.548;2023-04-09T14:38:00;10.65;;;5.97;;
78344;SDS011;67620;51.134;6.548;2023-04-09T14:40:28;8.38;;;5.82;;
78344;SDS011;67620;51.134;6.548;2023-04-09T14:42:55;7.30;;;5.30;;
78344;SDS011;67620;51.134;6.548;2023-04-09T14:45:20;9.05;;;5.80;;
78344;SDS011;67620;51.134;6.548;2023-04-09T14:47:46;9.60;;;6.38;;
78344;SDS011;67620;51.134;6.548;2023-04-09T14:50:12;10.40;;;6.30;;
78344;SDS011;67620;51.134;6.548;2023-04-09T14:52:37;8.90;;;6.05;;
78344;SDS011;67620;51.134;6.548;2023-04-09T14:55:03;8.35;;;5.70;;
78344;SDS011;67620;51.134;6.548;2023-04-09T14:57:29;8.52;;;5.60;;
78344;SDS011;67620;51.134;6.548;2023-04-09T14:59:55;10.63;;;6.30;;
78344;SDS011;67620;51.134;6.548;2023-04-09T15:02:20;7.85;;;5.35;;
78344;SDS011;67620;51.134;6.548;2023-04-09T15:04:46;9.05;;;5.72;;